Terminal Aerodrome Forecast
Issued by NWS Northern Indiana

Home | Current Version | Previous Version | Graphics & Text | Print | Product List | Glossary On
Versions: 1 2 3 4 5 6 7 8 9 10 11 12 13 14 15 16 17 18
436
FTUS43 KIWX 212002 AAA
TAFFWA
TAF AMD
KFWA 212002Z 2120/2218 23010KT 6SM -SHRA SCT020 BKN040
      TEMPO 2120/2121 35020G30KT 2SM +TSRA BR SCT010 OVC020CB
     FM220600 23006KT P6SM VCTS SCT020CB BKN250
     FM221000 23005KT P6SM BKN250=

USA.gov is the U.S. government's official web portal to all federal, state and local government web resources and services.